Terminal Aerodrome Forecast
Issued by NWS

Home | Current Version | Previous Version | Graphics & Text | Print | Product List | Glossary Off
Versions: 1 2 3 4 5 6 7 8 9 10 11 12 13 14 15 16 17 18 19 20 21 22 23 24 25 26 27 28 29 30 31 32 33 34 35

000
FTUS43 KLOT 071947 AAA
TAFORD
TAF AMD
KORD 071947Z 0720/0824 03017G25KT P6SM SCT045 SCT180
     FM072300 03012KT P6SM SCT200
     FM080200 02008KT P6SM FEW250
     FM081400 07008KT P6SM SCT030 BKN200
     FM082100 08008KT P6SM OVC025=

USA.gov is the U.S. government's official web portal to all federal, state and local government web resources and services.